createdAt,value
2023-03-07T00:00:21.209Z,53.55
2023-03-07T00:02:53.228Z,53.29
2023-03-07T00:05:23.143Z,53.41
2023-03-07T00:07:53.420Z,53.00
2023-03-07T00:10:22.380Z,53.69
2023-03-07T00:12:51.327Z,53.30
2023-03-07T00:15:20.099Z,53.73
2023-03-07T00:17:49.040Z,54.73
2023-03-07T00:20:18.118Z,54.34
2023-03-07T00:22:47.671Z,54.24
2023-03-07T00:25:18.086Z,54.26
2023-03-07T00:27:46.859Z,54.03
2023-03-07T00:30:15.898Z,54.36
2023-03-07T00:32:44.741Z,54.72
2023-03-07T00:35:13.613Z,54.57
2023-03-07T00:37:42.427Z,54.39
2023-03-07T00:40:12.634Z,54.49
2023-03-07T00:42:42.976Z,55.14
2023-03-07T00:45:13.826Z,55.55
2023-03-07T00:47:42.756Z,55.33
2023-03-07T00:50:12.502Z,55.74
2023-03-07T00:52:41.420Z,56.08
2023-03-07T00:55:11.325Z,56.65
2023-03-07T00:57:42.783Z,56.19
2023-03-07T01:00:13.217Z,56.18
2023-03-07T01:02:42.095Z,56.27
2023-03-07T01:05:11.473Z,56.53
2023-03-07T01:07:40.269Z,56.89
2023-03-07T01:10:09.764Z,57.30
2023-03-07T01:12:38.610Z,57.89
2023-03-07T01:15:10.085Z,57.79
2023-03-07T01:17:39.930Z,57.99
2023-03-07T01:20:10.548Z,58.46
2023-03-07T01:22:39.515Z,58.82
2023-03-07T01:25:09.301Z,59.22
2023-03-07T01:27:38.072Z,59.80
2023-03-07T01:30:10.278Z,60.08
2023-03-07T01:32:40.079Z,60.35
2023-03-07T01:35:09.290Z,60.71
2023-03-07T01:37:37.744Z,60.77
2023-03-07T01:40:10.363Z,59.83
2023-03-07T01:42:38.854Z,59.61
2023-03-07T01:45:25.171Z,59.44
2023-03-07T01:47:53.568Z,59.52
2023-03-07T01:50:22.060Z,59.72
2023-03-07T01:52:53.690Z,60.13
2023-03-07T01:55:27.484Z,60.89
2023-03-07T01:58:05.547Z,61.68
2023-03-07T02:00:38.586Z,61.75
2023-03-07T02:03:12.520Z,61.66
2023-03-07T02:05:48.786Z,62.00
2023-03-07T02:08:19.800Z,61.68
2023-03-07T02:10:49.228Z,61.79
2023-03-07T02:13:18.262Z,61.50
2023-03-07T02:15:50.332Z,61.67
2023-03-07T02:18:24.874Z,61.28
2023-03-07T02:21:01.024Z,61.08
2023-03-07T02:23:40.824Z,61.11
2023-03-07T02:26:16.050Z,60.46
2023-03-07T02:28:47.269Z,60.57
2023-03-07T02:31:16.407Z,60.45
2023-03-07T02:33:44.774Z,60.60
2023-03-07T02:36:17.388Z,61.46
2023-03-07T02:38:59.079Z,61.34
2023-03-07T02:41:31.468Z,61.72
2023-03-07T02:44:04.466Z,61.99
2023-03-07T02:46:33.197Z,61.84
2023-03-07T02:49:01.629Z,62.34
2023-03-07T02:51:30.145Z,62.53
2023-03-07T02:54:00.770Z,63.17
2023-03-07T02:56:29.564Z,63.40
2023-03-07T02:58:57.917Z,63.10
2023-03-07T03:01:27.921Z,63.11
2023-03-07T03:03:57.186Z,62.61
2023-03-07T03:06:26.567Z,62.16
2023-03-07T03:08:54.952Z,63.30
2023-03-07T03:11:23.736Z,62.78
2023-03-07T03:13:52.368Z,62.39
2023-03-07T03:16:21.241Z,62.29
2023-03-07T03:18:51.042Z,62.30
2023-03-07T03:21:20.496Z,62.02
2023-03-07T03:23:48.883Z,62.74
2023-03-07T03:26:17.334Z,62.63
2023-03-07T03:28:45.867Z,63.02
2023-03-07T03:31:15.548Z,63.17
2023-03-07T03:33:44.895Z,63.27
2023-03-07T03:36:18.415Z,63.78
2023-03-07T03:38:50.169Z,63.71
2023-03-07T03:41:18.684Z,63.86
2023-03-07T03:43:49.628Z,63.63
2023-03-07T03:46:20.539Z,63.95
2023-03-07T03:48:53.530Z,63.41
2023-03-07T03:51:26.175Z,63.04
2023-03-07T03:53:57.723Z,62.71
2023-03-07T03:56:28.080Z,62.88
2023-03-07T03:58:58.122Z,62.68
2023-03-07T04:01:28.428Z,63.05
2023-03-07T04:03:59.397Z,63.07
2023-03-07T04:06:32.328Z,63.04
2023-03-07T04:09:02.456Z,63.02
2023-03-07T04:11:32.719Z,62.72
2023-03-07T04:14:01.240Z,62.67
2023-03-07T04:16:30.170Z,62.63
2023-03-07T04:18:59.361Z,63.22
2023-03-07T04:21:29.277Z,63.57
2023-03-07T04:23:59.572Z,63.69
2023-03-07T04:26:31.622Z,63.51
2023-03-07T04:29:00.330Z,63.19
2023-03-07T04:31:48.989Z,63.48
2023-03-07T04:34:17.842Z,62.56
2023-03-07T04:36:47.593Z,62.59
2023-03-07T04:39:16.188Z,62.35
2023-03-07T04:41:45.935Z,62.48
2023-03-07T04:44:22.352Z,62.14
2023-03-07T04:46:50.747Z,62.26
2023-03-07T04:49:19.045Z,62.18
2023-03-07T04:51:49.038Z,62.15
2023-03-07T04:54:18.962Z,62.62
2023-03-07T04:56:49.153Z,63.06
2023-03-07T04:59:17.616Z,63.13
2023-03-07T05:01:47.452Z,63.67
2023-03-07T05:04:18.676Z,63.55
2023-03-07T05:06:48.829Z,64.15
2023-03-07T05:09:17.341Z,64.16
2023-03-07T05:11:47.204Z,64.29
2023-03-07T05:14:15.692Z,64.47
2023-03-07T05:16:44.257Z,64.60
2023-03-07T05:19:13.444Z,64.64
2023-03-07T05:21:44.259Z,65.19
2023-03-07T05:24:14.606Z,65.00
2023-03-07T05:26:43.690Z,65.12
2023-03-07T05:29:12.237Z,64.93
2023-03-07T05:31:40.628Z,64.48
2023-03-07T05:34:10.931Z,63.85
2023-03-07T05:36:40.439Z,63.09
2023-03-07T05:39:09.442Z,63.26
2023-03-07T05:41:39.457Z,63.39
2023-03-07T05:44:08.802Z,62.81
2023-03-07T05:46:37.439Z,63.37
2023-03-07T05:49:06.203Z,63.21
2023-03-07T05:51:34.707Z,63.12
2023-03-07T05:54:03.161Z,63.59
2023-03-07T05:56:31.866Z,63.31
2023-03-07T05:59:01.677Z,62.97
2023-03-07T06:01:30.205Z,63.48
2023-03-07T06:03:59.411Z,63.36
2023-03-07T06:06:27.833Z,63.59
2023-03-07T06:08:56.410Z,63.49
2023-03-07T06:11:24.978Z,63.39
2023-03-07T06:13:53.358Z,63.44
2023-03-07T06:16:23.504Z,63.62
2023-03-07T06:18:52.466Z,63.42
2023-03-07T06:21:20.862Z,63.79
2023-03-07T06:23:49.835Z,64.09
2023-03-07T06:26:21.407Z,64.57
2023-03-07T06:28:53.248Z,64.86
2023-03-07T06:31:24.222Z,64.72
2023-03-07T06:33:56.071Z,65.34
2023-03-07T06:36:26.430Z,65.08
2023-03-07T06:38:58.592Z,65.34
2023-03-07T06:41:27.371Z,65.42
2023-03-07T06:43:58.066Z,65.67
2023-03-07T06:46:30.871Z,65.70
2023-03-07T06:49:01.433Z,65.88
2023-03-07T06:51:30.200Z,65.51
2023-03-07T06:53:59.596Z,65.35
2023-03-07T06:56:30.599Z,64.48
2023-03-07T06:59:00.486Z,64.37
2023-03-07T07:01:30.353Z,64.33
2023-03-07T07:04:01.048Z,64.81
2023-03-07T07:06:30.907Z,64.27
2023-03-07T07:09:00.502Z,64.34
2023-03-07T07:11:33.886Z,65.64
2023-03-07T07:14:03.754Z,65.66
2023-03-07T07:16:36.541Z,65.91
2023-03-07T07:19:06.344Z,65.39
2023-03-07T07:21:36.528Z,65.76
2023-03-07T07:24:06.084Z,65.27
2023-03-07T07:26:34.707Z,65.11
2023-03-07T07:29:03.081Z,64.76
2023-03-07T07:31:31.761Z,64.41
2023-03-07T07:34:02.015Z,64.33
2023-03-07T07:36:33.076Z,64.12
2023-03-07T07:39:05.274Z,63.39
2023-03-07T07:41:35.626Z,62.80
2023-03-07T07:44:04.280Z,62.90
2023-03-07T07:46:46.137Z,62.58
2023-03-07T07:49:18.523Z,62.72
2023-03-07T07:51:47.194Z,63.17
2023-03-07T07:54:15.970Z,62.87
2023-03-07T07:56:44.510Z,62.75
2023-03-07T07:59:13.281Z,61.50
2023-03-07T08:01:41.721Z,60.77
2023-03-07T08:04:10.109Z,59.75
2023-03-07T08:06:39.876Z,58.15
2023-03-07T08:09:08.617Z,57.28
2023-03-07T08:11:37.136Z,57.22
2023-03-07T08:14:05.549Z,56.81
2023-03-07T08:16:34.025Z,57.04
2023-03-07T08:19:02.582Z,55.31
2023-03-07T08:21:31.028Z,54.41
2023-03-07T08:24:02.576Z,53.38
2023-03-07T08:26:30.998Z,53.59
2023-03-07T08:28:59.652Z,52.63
2023-03-07T08:31:28.467Z,52.51
2023-03-07T08:33:56.909Z,52.96
2023-03-07T08:36:25.487Z,53.00
2023-03-07T08:38:54.374Z,53.38
2023-03-07T08:41:24.748Z,53.28
2023-03-07T08:43:54.575Z,53.29
2023-03-07T08:46:23.678Z,53.83
2023-03-07T08:48:52.122Z,53.87
2023-03-07T08:51:20.837Z,53.66
2023-03-07T08:53:49.380Z,53.79
2023-03-07T08:56:19.974Z,53.52
2023-03-07T08:58:49.813Z,54.41
2023-03-07T09:01:19.733Z,53.72
2023-03-07T09:03:48.316Z,51.96
2023-03-07T09:06:19.049Z,52.28
2023-03-07T09:08:48.582Z,51.95
2023-03-07T09:11:18.810Z,51.05
2023-03-07T09:13:52.456Z,50.84
2023-03-07T09:16:23.575Z,50.69
2023-03-07T09:18:52.196Z,51.31
2023-03-07T09:21:20.655Z,50.62
2023-03-07T09:23:49.186Z,49.94
2023-03-07T09:26:17.982Z,48.26
2023-03-07T09:28:46.657Z,48.24
2023-03-07T09:31:16.894Z,48.64
2023-03-07T09:33:47.152Z,47.56
2023-03-07T09:36:18.162Z,47.62
2023-03-07T09:38:47.150Z,47.73
2023-03-07T09:41:31.868Z,48.32
2023-03-07T09:44:07.885Z,47.85
2023-03-07T09:47:11.931Z,48.04
2023-03-07T09:49:48.030Z,47.38
2023-03-07T09:52:19.669Z,47.53
2023-03-07T09:54:54.638Z,47.90
2023-03-07T09:57:27.514Z,46.78
2023-03-07T09:59:59.565Z,46.71
2023-03-07T10:02:30.732Z,47.01
2023-03-07T10:05:12.624Z,46.28
2023-03-07T10:07:42.987Z,46.46
2023-03-07T10:10:18.216Z,45.93
2023-03-07T10:13:01.014Z,46.03
2023-03-07T10:15:46.710Z,46.36
2023-03-07T10:18:28.993Z,46.11
2023-03-07T10:21:08.954Z,45.46
2023-03-07T10:23:59.116Z,45.69
2023-03-07T10:26:33.822Z,45.61
2023-03-07T10:29:11.942Z,45.43
2023-03-07T10:31:44.208Z,46.28
2023-03-07T10:34:26.790Z,46.50
2023-03-07T10:37:08.755Z,45.64
2023-03-07T10:39:44.792Z,45.88
2023-03-07T10:42:17.093Z,45.67
2023-03-07T10:44:48.440Z,45.82
2023-03-07T10:47:21.527Z,45.94
2023-03-07T10:49:54.045Z,46.76
2023-03-07T10:52:34.221Z,46.85
2023-03-07T10:55:35.116Z,46.82
2023-03-07T10:58:19.791Z,46.05
2023-03-07T11:00:59.885Z,46.16
2023-03-07T11:03:46.087Z,46.12
2023-03-07T11:06:33.090Z,46.50
2023-03-07T11:09:24.031Z,46.14
2023-03-07T11:11:55.789Z,46.79
2023-03-07T11:14:25.076Z,47.28
2023-03-07T11:16:57.608Z,47.67
2023-03-07T11:19:38.728Z,47.44
2023-03-07T11:22:20.055Z,47.98
2023-03-07T11:24:55.808Z,48.85
2023-03-07T11:27:27.025Z,49.36
2023-03-07T11:30:31.206Z,48.94
2023-03-07T11:33:16.984Z,49.48
2023-03-07T11:36:00.455Z,48.91
2023-03-07T11:38:50.053Z,49.20
2023-03-07T11:41:26.896Z,49.42
2023-03-07T11:44:06.328Z,49.14
2023-03-07T11:46:44.730Z,49.11
2023-03-07T11:49:26.035Z,49.21
2023-03-07T11:52:07.266Z,49.36
2023-03-07T11:54:49.594Z,49.79
2023-03-07T11:57:34.614Z,49.13
2023-03-07T12:00:25.010Z,48.80
2023-03-07T12:03:16.758Z,49.24
2023-03-07T12:06:04.666Z,48.60
2023-03-07T12:08:57.289Z,49.33
2023-03-07T12:11:37.214Z,48.96
2023-03-07T12:14:21.083Z,49.53
2023-03-07T12:16:56.976Z,50.23
2023-03-07T12:19:55.174Z,50.95
2023-03-07T12:22:29.130Z,51.68
2023-03-07T12:25:14.425Z,51.75
2023-03-07T12:27:47.033Z,52.17
2023-03-07T12:30:21.567Z,51.96
2023-03-07T12:32:52.382Z,51.85
2023-03-07T12:35:26.768Z,51.74
2023-03-07T12:38:05.569Z,51.84
2023-03-07T12:40:39.644Z,51.62
2023-03-07T12:43:16.163Z,51.55
2023-03-07T12:45:51.820Z,51.38
2023-03-07T12:48:28.544Z,50.78
2023-03-07T12:51:01.862Z,51.60
2023-03-07T12:53:37.368Z,51.73
2023-03-07T12:56:15.456Z,51.87
2023-03-07T12:58:50.318Z,51.89
2023-03-07T13:01:26.728Z,52.57
2023-03-07T13:04:03.720Z,53.04
2023-03-07T13:06:33.744Z,53.14
2023-03-07T13:09:04.208Z,53.48
2023-03-07T13:11:36.853Z,52.96
2023-03-07T13:14:06.297Z,53.40
2023-03-07T13:16:44.812Z,53.51
2023-03-07T13:19:51.835Z,53.86
2023-03-07T13:22:58.848Z,53.80
2023-03-07T13:25:56.491Z,54.22
2023-03-07T13:28:51.794Z,54.50
2023-03-07T13:31:46.793Z,54.44
2023-03-07T13:34:48.708Z,54.86
2023-03-07T13:37:57.053Z,54.69
2023-03-07T13:40:53.058Z,55.58
2023-03-07T13:43:57.127Z,55.75
2023-03-07T13:46:51.931Z,56.01
2023-03-07T13:49:45.490Z,56.30
2023-03-07T13:52:45.430Z,56.36
2023-03-07T13:55:24.212Z,55.87
2023-03-07T13:57:56.981Z,55.92
2023-03-07T14:00:31.952Z,55.96
2023-03-07T14:03:00.594Z,55.72
2023-03-07T14:05:33.385Z,55.57
2023-03-07T14:08:03.552Z,55.67
2023-03-07T14:10:33.232Z,56.02
2023-03-07T14:13:26.678Z,55.88
2023-03-07T14:16:16.911Z,56.63
2023-03-07T14:18:55.860Z,56.83
2023-03-07T14:21:35.588Z,56.98
2023-03-07T14:24:27.717Z,57.35
2023-03-07T14:26:58.684Z,58.21
2023-03-07T14:29:29.958Z,58.22
2023-03-07T14:32:01.019Z,58.26
2023-03-07T14:34:31.699Z,57.82
2023-03-07T14:37:04.543Z,58.39
2023-03-07T14:39:45.547Z,58.74
2023-03-07T14:42:24.541Z,59.48
2023-03-07T14:45:14.074Z,59.74
2023-03-07T14:48:07.736Z,59.50
2023-03-07T14:50:40.135Z,59.91
2023-03-07T14:53:18.038Z,60.34
2023-03-07T14:55:49.052Z,61.03
2023-03-07T14:58:19.973Z,62.08
2023-03-07T15:00:58.197Z,62.34
2023-03-07T15:03:26.972Z,63.23
2023-03-07T15:05:57.534Z,63.51
2023-03-07T15:08:30.572Z,64.02
2023-03-07T15:11:06.929Z,64.21
2023-03-07T15:13:39.414Z,64.50
2023-03-07T15:16:12.678Z,64.17
2023-03-07T15:18:45.057Z,64.83
2023-03-07T15:21:19.101Z,64.83
2023-03-07T15:23:55.459Z,65.66
2023-03-07T15:26:26.577Z,66.97
2023-03-07T15:29:01.196Z,67.12
2023-03-07T15:31:32.858Z,67.68
2023-03-07T15:34:12.757Z,67.26
2023-03-07T15:36:42.235Z,68.00
2023-03-07T15:39:33.226Z,67.65
2023-03-07T15:42:04.971Z,67.99
2023-03-07T15:44:35.004Z,68.41
2023-03-07T15:47:13.617Z,68.69
2023-03-07T15:49:45.313Z,69.42
2023-03-07T15:52:28.060Z,70.02
2023-03-07T15:55:01.060Z,70.42
2023-03-07T15:57:33.414Z,70.59
2023-03-07T16:00:04.902Z,70.86
2023-03-07T16:02:42.914Z,71.11
2023-03-07T16:05:34.174Z,70.78
2023-03-07T16:08:03.690Z,71.18
2023-03-07T16:10:33.795Z,70.92
2023-03-07T16:13:03.244Z,70.72
2023-03-07T16:15:31.837Z,70.42
2023-03-07T16:18:00.273Z,70.15
2023-03-07T16:20:30.026Z,69.63
2023-03-07T16:22:58.638Z,69.30
2023-03-07T16:25:32.245Z,69.17
2023-03-07T16:28:02.126Z,69.00
2023-03-07T16:30:33.262Z,69.33
2023-03-07T16:33:01.791Z,69.88
2023-03-07T16:35:30.580Z,69.89
2023-03-07T16:37:59.363Z,69.80
2023-03-07T16:40:28.608Z,69.92
2023-03-07T16:42:57.041Z,70.31
2023-03-07T16:45:28.939Z,70.17
2023-03-07T16:47:59.329Z,70.38
2023-03-07T16:50:29.814Z,70.40
2023-03-07T16:52:59.615Z,70.45
2023-03-07T16:55:34.431Z,70.54
2023-03-07T16:58:05.683Z,70.57
2023-03-07T17:00:35.679Z,70.71
2023-03-07T17:03:04.452Z,70.76
2023-03-07T17:05:33.361Z,70.66
2023-03-07T17:08:01.681Z,70.75
2023-03-07T17:10:30.317Z,70.27
2023-03-07T17:13:00.102Z,70.89
2023-03-07T17:15:31.680Z,71.03
2023-03-07T17:18:02.161Z,71.08
2023-03-07T17:20:31.191Z,70.99
2023-03-07T17:22:59.898Z,70.89
2023-03-07T17:25:29.164Z,70.95
2023-03-07T17:28:01.429Z,70.71
2023-03-07T17:30:31.827Z,70.80
2023-03-07T17:33:03.117Z,70.76
2023-03-07T17:35:31.644Z,70.98
2023-03-07T17:37:59.950Z,71.49
2023-03-07T17:40:28.603Z,71.45
2023-03-07T17:42:59.364Z,71.34
2023-03-07T17:45:27.961Z,71.39
2023-03-07T17:47:56.461Z,71.34
2023-03-07T17:50:26.447Z,72.00
2023-03-07T17:52:56.106Z,72.06
2023-03-07T17:55:26.211Z,73.02
2023-03-07T17:57:54.810Z,73.53
2023-03-07T18:00:23.942Z,73.22
2023-03-07T18:02:52.768Z,73.60
2023-03-07T18:05:21.271Z,72.89
2023-03-07T18:07:52.737Z,72.84
2023-03-07T18:10:21.437Z,72.85
2023-03-07T18:12:50.708Z,73.08
2023-03-07T18:15:21.795Z,72.85
2023-03-07T18:17:50.566Z,72.45
2023-03-07T18:20:20.522Z,71.98
2023-03-07T18:22:50.629Z,71.88
2023-03-07T18:25:20.374Z,71.69
2023-03-07T18:27:48.903Z,72.08
2023-03-07T18:30:18.000Z,72.37
2023-03-07T18:32:46.531Z,71.77
2023-03-07T18:35:16.827Z,72.04
2023-03-07T18:37:45.712Z,71.95
2023-03-07T18:40:15.938Z,72.64
2023-03-07T18:42:44.398Z,72.87
2023-03-07T18:45:13.756Z,72.12
2023-03-07T18:47:42.097Z,72.72
2023-03-07T18:50:12.125Z,71.98
2023-03-07T18:52:40.539Z,71.80
2023-03-07T18:55:11.091Z,71.52
2023-03-07T18:57:40.953Z,72.86
2023-03-07T19:00:11.590Z,72.67
2023-03-07T19:02:40.305Z,72.29
2023-03-07T19:05:11.653Z,72.77
2023-03-07T19:07:41.700Z,72.34
2023-03-07T19:10:11.594Z,73.52
2023-03-07T19:12:42.453Z,72.75
2023-03-07T19:15:11.618Z,72.68
2023-03-07T19:17:41.211Z,71.58
2023-03-07T19:20:11.019Z,72.33
2023-03-07T19:22:40.426Z,72.04
2023-03-07T19:25:11.037Z,71.90
2023-03-07T19:27:39.980Z,72.59
2023-03-07T19:30:12.762Z,72.07
2023-03-07T19:32:41.266Z,72.14
2023-03-07T19:35:10.130Z,72.15
2023-03-07T19:37:38.590Z,72.09
2023-03-07T19:40:08.719Z,71.86
2023-03-07T19:42:37.113Z,72.58
2023-03-07T19:45:07.226Z,73.03
2023-03-07T19:47:37.085Z,72.49
2023-03-07T19:50:06.043Z,72.11
2023-03-07T19:52:34.355Z,71.98
2023-03-07T19:55:02.730Z,72.18
2023-03-07T19:57:31.093Z,72.20
2023-03-07T19:59:59.477Z,73.69
2023-03-07T20:02:29.544Z,73.66
2023-03-07T20:05:00.267Z,73.07
2023-03-07T20:07:28.816Z,72.89
2023-03-07T20:09:57.350Z,73.29
2023-03-07T20:12:25.754Z,73.35
2023-03-07T20:14:54.222Z,73.41
2023-03-07T20:17:22.664Z,73.99
2023-03-07T20:19:53.056Z,74.05
2023-03-07T20:22:23.661Z,73.95
2023-03-07T20:24:52.742Z,73.66
2023-03-07T20:27:23.603Z,73.71
2023-03-07T20:29:52.380Z,74.57
2023-03-07T20:32:21.093Z,74.13
2023-03-07T20:34:52.672Z,73.94
2023-03-07T20:37:22.542Z,74.78
2023-03-07T20:39:51.013Z,74.33
2023-03-07T20:42:20.421Z,74.28
2023-03-07T20:44:49.741Z,74.37
2023-03-07T20:47:18.123Z,73.86
2023-03-07T20:49:47.839Z,73.29
2023-03-07T20:52:16.807Z,73.02
2023-03-07T20:54:47.059Z,73.84
2023-03-07T20:57:15.636Z,73.29
2023-03-07T20:59:44.077Z,73.35
2023-03-07T21:02:12.533Z,72.76
2023-03-07T21:04:40.862Z,73.06
2023-03-07T21:07:09.438Z,72.81
2023-03-07T21:09:37.962Z,72.62
2023-03-07T21:12:08.733Z,73.58
2023-03-07T21:14:37.200Z,73.66
2023-03-07T21:17:06.059Z,73.47
2023-03-07T21:19:34.514Z,73.53
2023-03-07T21:22:03.250Z,73.87
2023-03-07T21:24:31.651Z,74.17
2023-03-07T21:27:00.412Z,74.28
2023-03-07T21:29:31.263Z,74.40
2023-03-07T21:31:59.736Z,74.80
2023-03-07T21:34:28.050Z,74.50
2023-03-07T21:36:57.118Z,74.24
2023-03-07T21:39:25.809Z,73.91
2023-03-07T21:41:54.659Z,74.08
2023-03-07T21:44:23.171Z,72.95
2023-03-07T21:46:53.573Z,73.40
2023-03-07T21:49:21.915Z,73.12
2023-03-07T21:51:50.322Z,72.60
2023-03-07T21:54:18.925Z,72.85
2023-03-07T21:56:47.336Z,72.98
2023-03-07T21:59:15.685Z,72.62
2023-03-07T22:01:44.044Z,72.60
2023-03-07T22:04:14.016Z,72.44
2023-03-07T22:06:42.462Z,72.49
2023-03-07T22:09:10.872Z,72.36
2023-03-07T22:11:40.306Z,72.89
2023-03-07T22:14:08.773Z,72.58
2023-03-07T22:16:37.259Z,71.49
2023-03-07T22:19:05.796Z,71.69
2023-03-07T22:21:35.724Z,72.25
2023-03-07T22:24:04.132Z,72.97
2023-03-07T22:26:33.402Z,72.63
2023-03-07T22:29:02.838Z,72.50
2023-03-07T22:31:31.552Z,71.88
2023-03-07T22:34:01.054Z,71.88
2023-03-07T22:36:29.504Z,72.00
2023-03-07T22:38:59.302Z,73.01
2023-03-07T22:41:28.414Z,73.35
2023-03-07T22:43:56.851Z,73.48
2023-03-07T22:46:25.363Z,73.23
2023-03-07T22:48:54.986Z,73.12
2023-03-07T22:51:24.871Z,72.77
2023-03-07T22:53:53.734Z,72.37
2023-03-07T22:56:25.165Z,72.20
2023-03-07T22:58:53.541Z,72.49
2023-03-07T23:01:23.998Z,72.56
2023-03-07T23:03:54.598Z,72.81
2023-03-07T23:06:24.289Z,72.73
2023-03-07T23:08:54.450Z,72.07
2023-03-07T23:11:25.784Z,71.86
2023-03-07T23:13:55.126Z,72.62
2023-03-07T23:16:26.914Z,72.02
2023-03-07T23:18:58.413Z,72.59
2023-03-07T23:21:29.173Z,72.12
2023-03-07T23:23:58.124Z,72.60
2023-03-07T23:26:30.166Z,71.96
2023-03-07T23:28:58.809Z,72.22
2023-03-07T23:31:29.404Z,71.85
2023-03-07T23:33:58.686Z,71.56
2023-03-07T23:36:29.073Z,72.15
2023-03-07T23:38:58.044Z,72.14
2023-03-07T23:41:28.711Z,72.37
2023-03-07T23:43:59.213Z,72.22
2023-03-07T23:46:28.610Z,72.88
2023-03-07T23:48:57.829Z,72.92
2023-03-07T23:51:26.449Z,72.55
2023-03-07T23:53:54.925Z,72.11
2023-03-07T23:56:23.375Z,72.26
2023-03-07T23:58:53.401Z,71.37
